createdAt,value
2018-02-05T00:00:06.718Z,23.40
2018-02-05T00:01:06.573Z,22.00
2018-02-05T00:02:06.561Z,22.50
2018-02-05T00:03:06.403Z,21.40
2018-02-05T00:04:06.464Z,23.20
2018-02-05T00:05:06.244Z,22.60
2018-02-05T00:06:06.152Z,21.70
2018-02-05T00:07:06.060Z,22.40
2018-02-05T00:08:06.057Z,21.60
2018-02-05T00:09:06.057Z,21.20
2018-02-05T00:10:05.854Z,20.80
2018-02-05T00:11:05.734Z,22.30
2018-02-05T00:12:06.073Z,21.90
2018-02-05T00:13:05.572Z,22.20
2018-02-05T00:15:47.763Z,22.40
2018-02-05T00:16:47.666Z,24.20
2018-02-05T00:17:47.512Z,22.20
2018-02-05T00:18:47.517Z,23.70
2018-02-05T00:19:47.345Z,23.60
2018-02-05T00:20:47.390Z,24.50
2018-02-05T00:21:47.179Z,24.80
2018-02-05T00:22:47.203Z,25.70
2018-02-05T00:23:47.056Z,24.90
2018-02-05T00:24:47.034Z,24.20
2018-02-05T00:25:46.838Z,25.10
2018-02-05T00:26:46.811Z,24.20
2018-02-05T00:27:46.679Z,25.10
2018-02-05T00:28:46.925Z,24.40
2018-02-05T00:29:46.608Z,24.40
2018-02-05T00:30:46.578Z,25.20
2018-02-05T00:31:46.336Z,24.90
2018-02-05T00:32:46.338Z,25.30
2018-02-05T00:33:46.166Z,26.20
2018-02-05T00:34:46.149Z,24.40
2018-02-05T00:35:46.044Z,24.90
2018-02-05T00:36:45.978Z,24.40
2018-02-05T00:37:45.841Z,24.70
2018-02-05T00:38:45.873Z,26.10
2018-02-05T00:39:45.662Z,24.80
2018-02-05T00:40:45.718Z,25.70
2018-02-05T00:41:45.530Z,25.40
2018-02-05T00:42:45.488Z,24.80
2018-02-05T00:43:45.359Z,26.70
2018-02-05T00:44:45.253Z,26.50
2018-02-05T00:45:45.157Z,25.60
2018-02-05T00:46:45.141Z,26.00
2018-02-05T00:47:44.990Z,25.60
2018-02-05T00:48:45.007Z,26.00
2018-02-05T00:49:44.846Z,24.90
2018-02-05T00:50:44.829Z,25.60
2018-02-05T00:51:44.664Z,25.80
2018-02-05T00:52:44.644Z,26.20
2018-02-05T00:53:44.504Z,25.70
2018-02-05T00:54:44.548Z,26.50
2018-02-05T00:55:44.312Z,27.50
2018-02-05T00:56:44.386Z,26.60
2018-02-05T00:57:44.151Z,26.10
2018-02-05T00:58:44.157Z,26.20
2018-02-05T00:59:44.040Z,26.50
2018-02-05T01:00:43.960Z,27.60
2018-02-05T01:01:43.833Z,27.80
2018-02-05T01:02:43.812Z,25.60
2018-02-05T01:03:43.689Z,25.70
2018-02-05T01:04:43.682Z,25.90
2018-02-05T01:05:43.490Z,25.90
2018-02-05T01:06:43.487Z,26.30
2018-02-05T01:07:43.322Z,27.60
2018-02-05T01:08:43.301Z,25.30
2018-02-05T01:09:43.155Z,26.20
2018-02-05T01:10:43.103Z,26.70
2018-02-05T01:11:42.972Z,26.50
2018-02-05T01:12:42.958Z,26.60
2018-02-05T01:13:42.820Z,25.80
2018-02-05T01:14:42.859Z,28.60
2018-02-05T01:15:42.636Z,25.60
2018-02-05T01:16:42.638Z,27.00
2018-02-05T01:17:42.471Z,26.30
2018-02-05T01:18:42.482Z,26.40
2018-02-05T01:19:42.306Z,26.60
2018-02-05T01:20:42.253Z,25.70
2018-02-05T01:21:42.153Z,27.00
2018-02-05T01:22:42.203Z,26.10
2018-02-05T01:23:41.973Z,26.00
2018-02-05T01:24:41.979Z,25.40
2018-02-05T01:25:41.796Z,25.80
2018-02-05T01:26:41.787Z,26.40
2018-02-05T01:27:41.682Z,25.50
2018-02-05T01:28:41.586Z,25.60
2018-02-05T01:29:41.456Z,25.70
2018-02-05T01:30:41.502Z,24.20
2018-02-05T01:31:41.280Z,25.50
2018-02-05T01:32:41.334Z,24.80
2018-02-05T01:33:41.143Z,25.10
2018-02-05T01:34:41.162Z,24.40
2018-02-05T01:35:40.957Z,24.60
2018-02-05T01:36:41.027Z,24.70
2018-02-05T01:37:40.812Z,25.50
2018-02-05T01:38:40.773Z,25.00
2018-02-05T01:39:40.611Z,26.90
2018-02-05T01:40:40.638Z,24.70
2018-02-05T01:41:40.447Z,26.20
2018-02-05T01:42:40.454Z,25.20
2018-02-05T01:43:40.312Z,25.10
2018-02-05T01:44:40.255Z,25.20
2018-02-05T01:45:40.114Z,25.10
2018-02-05T01:46:40.066Z,25.30
2018-02-05T01:47:39.941Z,24.70
2018-02-05T01:48:39.910Z,24.70
2018-02-05T01:49:39.766Z,25.60
2018-02-05T01:50:39.824Z,25.00
2018-02-05T01:51:39.611Z,25.10
2018-02-05T01:52:39.600Z,24.00
2018-02-05T01:53:39.437Z,24.10
2018-02-05T01:54:39.434Z,24.20
2018-02-05T01:55:39.276Z,23.90
2018-02-05T01:56:39.246Z,23.90
2018-02-05T01:57:39.096Z,23.80
2018-02-05T01:58:39.130Z,22.70
2018-02-05T01:59:39.025Z,23.30
2018-02-05T02:00:38.930Z,23.40
2018-02-05T02:01:38.769Z,22.90
2018-02-05T02:02:38.737Z,22.90
2018-02-05T02:03:38.588Z,23.60
2018-02-05T02:04:38.587Z,22.60
2018-02-05T02:05:38.432Z,23.50
2018-02-05T02:06:38.454Z,23.20
2018-02-05T02:07:38.270Z,23.10
2018-02-05T02:08:38.284Z,22.80
2018-02-05T02:09:38.082Z,22.30
2018-02-05T02:10:39.137Z,23.00
2018-02-05T02:11:37.930Z,23.00
2018-02-05T02:12:37.882Z,23.30
2018-02-05T02:13:37.947Z,22.70
2018-02-05T02:14:37.734Z,22.80
2018-02-05T02:15:37.588Z,23.70
2018-02-05T02:16:37.605Z,22.90
2018-02-05T02:17:37.409Z,22.20
2018-02-05T02:18:37.498Z,21.50
2018-02-05T02:19:37.252Z,21.30
2018-02-05T02:20:37.218Z,22.30
2018-02-05T02:21:37.106Z,22.10
2018-02-05T02:22:37.215Z,21.70
2018-02-05T02:23:36.928Z,20.90
2018-02-05T02:24:36.963Z,21.50
2018-02-05T02:25:36.737Z,21.80
2018-02-05T02:26:36.783Z,22.10
2018-02-05T02:27:36.571Z,21.30
2018-02-05T02:28:36.598Z,21.90
2018-02-05T02:29:36.405Z,22.00
2018-02-05T02:30:36.403Z,22.00
2018-02-05T02:31:36.228Z,22.00
2018-02-05T02:32:36.279Z,20.70
2018-02-05T02:33:36.069Z,20.80
2018-02-05T02:34:36.085Z,20.70
2018-02-05T02:35:35.961Z,20.50
2018-02-05T02:36:35.890Z,20.10
2018-02-05T02:37:35.747Z,21.70
2018-02-05T02:38:35.710Z,21.00
2018-02-05T02:39:35.564Z,20.70
2018-02-05T02:40:35.615Z,20.30
2018-02-05T02:41:35.407Z,21.10
2018-02-05T02:42:35.453Z,19.80
2018-02-05T02:43:35.248Z,20.80
2018-02-05T02:44:35.268Z,19.80
2018-02-05T02:45:35.047Z,20.30
2018-02-05T02:46:35.031Z,20.30
2018-02-05T02:47:34.927Z,20.20
2018-02-05T02:48:34.846Z,20.00
2018-02-05T02:49:34.717Z,19.70
2018-02-05T02:50:34.751Z,20.30
2018-02-05T02:51:34.543Z,20.00
2018-02-05T02:52:34.610Z,20.80
2018-02-05T02:53:34.382Z,20.60
2018-02-05T02:54:34.367Z,20.00
2018-02-05T02:55:34.217Z,21.50
2018-02-05T02:56:34.175Z,20.70
2018-02-05T02:57:34.110Z,20.20
2018-02-05T02:58:34.092Z,20.40
2018-02-05T02:59:33.879Z,20.60
2018-02-05T03:00:33.896Z,20.20
2018-02-05T03:01:33.779Z,20.00
2018-02-05T03:02:33.712Z,20.00
2018-02-05T03:03:33.530Z,20.20
2018-02-05T03:04:33.520Z,20.80
2018-02-05T03:05:33.360Z,20.30
2018-02-05T03:06:33.418Z,20.50
2018-02-05T03:07:33.208Z,18.90
2018-02-05T03:08:33.237Z,20.60
2018-02-05T03:09:33.052Z,20.10
2018-02-05T03:10:33.042Z,19.40
2018-02-05T03:11:32.915Z,20.60
2018-02-05T03:12:32.846Z,20.20
2018-02-05T03:13:32.692Z,20.50
2018-02-05T03:14:32.664Z,19.30
2018-02-05T03:15:32.537Z,20.10
2018-02-05T03:16:32.574Z,19.70
2018-02-05T03:17:32.365Z,19.60
2018-02-05T03:18:32.378Z,20.40
2018-02-05T03:19:32.196Z,20.40
2018-02-05T03:20:32.295Z,20.70
2018-02-05T03:21:32.016Z,20.10
2018-02-05T03:22:31.993Z,19.60
2018-02-05T03:23:31.988Z,19.40
2018-02-05T03:24:31.804Z,19.30
2018-02-05T03:25:31.683Z,19.10
2018-02-05T03:26:31.675Z,20.20
2018-02-05T03:27:31.510Z,19.20
2018-02-05T03:28:31.559Z,18.80
2018-02-05T03:29:31.336Z,19.60
2018-02-05T03:30:31.335Z,19.60
2018-02-05T03:31:31.184Z,20.00
2018-02-05T03:32:31.168Z,19.20
2018-02-05T03:33:31.007Z,19.30
2018-02-05T03:34:31.045Z,19.60
2018-02-05T03:35:30.832Z,19.40
2018-02-05T03:36:30.891Z,19.40
2018-02-05T03:37:30.668Z,19.40
2018-02-05T03:38:30.664Z,19.20
2018-02-05T03:39:30.523Z,19.40
2018-02-05T03:40:30.476Z,18.60
2018-02-05T03:41:30.324Z,18.30
2018-02-05T03:42:30.315Z,18.90
2018-02-05T03:43:30.165Z,19.60
2018-02-05T03:44:30.231Z,18.30
2018-02-05T03:45:29.996Z,18.60
2018-02-05T03:46:30.005Z,18.90
2018-02-05T03:47:29.846Z,19.10
2018-02-05T03:48:29.820Z,18.30
2018-02-05T03:49:29.659Z,17.50
2018-02-05T03:50:29.627Z,17.20
2018-02-05T03:51:29.486Z,18.40
2018-02-05T03:52:29.572Z,18.10
2018-02-05T03:53:29.334Z,17.70
2018-02-05T03:54:29.662Z,18.40
2018-02-05T03:55:29.161Z,17.80
2018-02-05T03:56:29.567Z,18.20
2018-02-05T03:57:29.004Z,17.60
2018-02-05T03:58:28.950Z,18.20
2018-02-05T03:59:28.846Z,18.60
2018-02-05T04:00:28.861Z,18.20
2018-02-05T04:01:28.780Z,17.40
2018-02-05T04:02:28.684Z,17.90
2018-02-05T04:03:28.497Z,17.40
2018-02-05T04:04:28.490Z,17.20
2018-02-05T04:05:28.323Z,17.10
2018-02-05T04:06:28.323Z,18.00
2018-02-05T04:07:28.142Z,16.70
2018-02-05T04:08:28.095Z,17.30
2018-02-05T04:09:27.986Z,17.00
2018-02-05T04:10:28.125Z,18.10
2018-02-05T04:11:27.826Z,17.70
2018-02-05T04:12:27.816Z,17.80
2018-02-05T04:13:27.635Z,18.20
2018-02-05T04:14:27.629Z,16.60
2018-02-05T04:15:27.479Z,16.60
2018-02-05T04:16:27.470Z,17.60
2018-02-05T04:17:27.297Z,17.50
2018-02-05T04:18:27.345Z,17.90
2018-02-05T04:19:27.131Z,18.40
2018-02-05T04:20:27.149Z,17.40
2018-02-05T04:21:26.980Z,18.00
2018-02-05T04:22:26.964Z,17.50
2018-02-05T04:23:26.804Z,18.20
2018-02-05T04:24:26.782Z,17.40
2018-02-05T04:25:26.633Z,17.20
2018-02-05T04:26:26.718Z,17.70
2018-02-05T04:27:26.460Z,17.30
2018-02-05T04:28:26.481Z,17.80
2018-02-05T04:29:26.285Z,17.70
2018-02-05T04:30:26.298Z,17.00
2018-02-05T04:31:26.119Z,17.90
2018-02-05T04:32:26.130Z,17.60
2018-02-05T04:33:25.947Z,18.00
2018-02-05T04:34:25.909Z,18.10
2018-02-05T04:35:25.778Z,16.70
2018-02-05T04:36:25.820Z,18.10
2018-02-05T04:37:25.637Z,18.50
2018-02-05T04:38:25.630Z,17.20
2018-02-05T04:39:25.462Z,18.00
2018-02-05T04:40:25.433Z,17.50
2018-02-05T04:41:25.279Z,17.30
2018-02-05T04:42:25.286Z,17.40
2018-02-05T04:43:25.135Z,17.40
2018-02-05T04:44:25.162Z,18.20
2018-02-05T04:45:25.065Z,17.60
2018-02-05T04:46:24.967Z,18.30
2018-02-05T04:47:24.771Z,17.60
2018-02-05T04:48:24.815Z,18.30
2018-02-05T04:49:24.597Z,17.70
2018-02-05T04:50:24.587Z,17.70
2018-02-05T04:51:24.463Z,17.40
2018-02-05T04:52:24.397Z,19.00
2018-02-05T04:53:24.281Z,17.90
2018-02-05T04:54:24.210Z,17.90
2018-02-05T04:55:24.092Z,18.60
2018-02-05T04:56:24.021Z,18.20
2018-02-05T04:57:23.980Z,18.50
2018-02-05T04:58:23.956Z,17.20
2018-02-05T04:59:23.859Z,18.50
2018-02-05T05:00:23.736Z,18.40
2018-02-05T05:01:23.582Z,18.60
2018-02-05T05:02:23.538Z,18.70
2018-02-05T05:03:23.441Z,18.10
2018-02-05T05:04:23.462Z,19.50
2018-02-05T05:05:23.250Z,20.00
2018-02-05T05:06:23.257Z,18.60
2018-02-05T05:07:23.099Z,19.30
2018-02-05T05:08:23.102Z,18.50
2018-02-05T05:09:22.923Z,18.60
2018-02-05T05:10:22.847Z,18.60
2018-02-05T05:11:22.741Z,18.20
2018-02-05T05:12:22.785Z,18.20
2018-02-05T05:13:22.581Z,18.00
2018-02-05T05:14:22.635Z,18.40
2018-02-05T05:15:22.446Z,18.00
2018-02-05T05:16:22.405Z,18.70
2018-02-05T05:17:22.242Z,18.30
2018-02-05T05:18:22.206Z,18.40
2018-02-05T05:19:22.075Z,17.10
2018-02-05T05:20:22.021Z,18.70
2018-02-05T05:21:21.901Z,18.40
2018-02-05T05:22:21.932Z,18.40
2018-02-05T05:23:21.729Z,17.80
2018-02-05T05:24:21.774Z,17.90
2018-02-05T05:25:21.572Z,18.50
2018-02-05T05:26:21.540Z,19.40
2018-02-05T05:27:21.389Z,18.80
2018-02-05T05:28:21.354Z,18.10
2018-02-05T05:29:21.312Z,18.30
2018-02-05T05:30:21.293Z,18.20
2018-02-05T05:31:21.080Z,17.10
2018-02-05T05:32:21.070Z,18.50
2018-02-05T05:33:20.881Z,17.40
2018-02-05T05:34:20.909Z,18.70
2018-02-05T05:35:20.738Z,18.50
2018-02-05T05:36:20.691Z,17.10
2018-02-05T05:37:20.542Z,17.60
2018-02-05T05:38:20.530Z,18.40
2018-02-05T05:39:20.410Z,17.60
2018-02-05T05:40:20.402Z,17.80
2018-02-05T05:41:20.222Z,17.50
2018-02-05T05:42:20.226Z,17.20
2018-02-05T05:43:20.061Z,18.00
2018-02-05T05:44:20.030Z,16.90
2018-02-05T05:45:19.865Z,16.90
2018-02-05T05:46:19.809Z,17.30
2018-02-05T05:47:19.699Z,16.80
2018-02-05T05:48:19.740Z,16.40
2018-02-05T05:49:19.535Z,16.30
2018-02-05T05:50:19.552Z,16.60
2018-02-05T05:51:19.380Z,16.20
2018-02-05T05:52:19.459Z,15.50
2018-02-05T05:53:19.190Z,16.10
2018-02-05T05:54:19.177Z,15.70
2018-02-05T05:55:19.022Z,16.30
2018-02-05T05:56:19.005Z,16.80
2018-02-05T05:57:18.847Z,16.80
2018-02-05T05:58:18.884Z,16.20
2018-02-05T05:59:18.687Z,16.20
2018-02-05T06:00:18.715Z,16.00
2018-02-05T06:01:18.519Z,15.40
2018-02-05T06:02:18.530Z,16.20
2018-02-05T06:03:18.346Z,15.30
2018-02-05T06:04:18.311Z,15.80
2018-02-05T06:05:18.178Z,16.10
2018-02-05T06:06:19.125Z,15.60
2018-02-05T06:07:18.029Z,15.20
2018-02-05T06:08:17.969Z,15.90
2018-02-05T06:09:17.849Z,16.10
2018-02-05T06:10:17.769Z,14.80
2018-02-05T06:11:17.686Z,15.80
2018-02-05T06:12:17.593Z,14.90
2018-02-05T06:13:17.578Z,15.70
2018-02-05T06:14:17.456Z,15.90
2018-02-05T06:15:17.374Z,15.10
2018-02-05T06:16:17.264Z,15.20
2018-02-05T06:17:17.168Z,15.60
2018-02-05T06:18:17.112Z,15.50
2018-02-05T06:19:17.006Z,15.40
2018-02-05T06:20:16.915Z,15.40
2018-02-05T06:21:16.826Z,15.60
2018-02-05T06:22:16.808Z,15.40
2018-02-05T06:23:16.671Z,15.60
2018-02-05T06:24:16.605Z,15.10
2018-02-05T06:25:16.496Z,15.30
2018-02-05T06:26:16.425Z,15.10
2018-02-05T06:27:16.336Z,15.40
2018-02-05T06:28:16.244Z,14.30
2018-02-05T06:29:16.167Z,14.70
2018-02-05T06:30:16.089Z,14.50
2018-02-05T06:31:16.000Z,14.20
2018-02-05T06:32:15.899Z,14.20
2018-02-05T06:33:15.828Z,14.70
2018-02-05T06:34:15.752Z,14.80
2018-02-05T06:35:15.649Z,14.00
2018-02-05T06:36:16.280Z,14.90
2018-02-05T06:37:15.483Z,15.40
2018-02-05T06:38:15.413Z,14.80
2018-02-05T06:39:15.330Z,14.00
2018-02-05T06:40:15.256Z,14.20
2018-02-05T06:41:15.153Z,14.70
2018-02-05T06:42:15.091Z,14.90
2018-02-05T06:43:14.962Z,14.70
2018-02-05T06:44:14.925Z,14.50
2018-02-05T06:45:14.887Z,14.70
2018-02-05T06:46:14.721Z,14.50
2018-02-05T06:47:14.625Z,14.50
2018-02-05T06:48:14.559Z,14.50
2018-02-05T06:49:14.459Z,14.20
2018-02-05T06:50:14.412Z,15.30
2018-02-05T06:51:14.295Z,14.20
2018-02-05T06:52:14.226Z,14.30
2018-02-05T06:53:14.126Z,13.80
2018-02-05T06:54:14.057Z,13.90
2018-02-05T06:55:13.982Z,14.50
2018-02-05T06:56:13.917Z,13.90
2018-02-05T06:57:13.783Z,13.90
2018-02-05T06:58:13.716Z,14.50
2018-02-05T06:59:13.638Z,13.80
2018-02-05T07:00:13.560Z,13.90
2018-02-05T07:01:13.490Z,14.20
2018-02-05T07:02:13.397Z,13.90
2018-02-05T07:03:13.293Z,14.90
2018-02-05T07:04:13.214Z,13.60
2018-02-05T07:05:13.117Z,14.90
2018-02-05T07:06:13.061Z,14.10
2018-02-05T07:07:12.975Z,14.00
2018-02-05T07:09:55.245Z,14.70
2018-02-05T07:10:55.135Z,13.50
2018-02-05T07:11:55.094Z,14.10
2018-02-05T07:12:54.971Z,13.40
2018-02-05T07:13:54.868Z,13.50
2018-02-05T07:14:55.778Z,14.00
2018-02-05T07:15:54.705Z,14.20
2018-02-05T07:16:54.655Z,14.20
2018-02-05T07:17:54.553Z,13.30
2018-02-05T07:18:54.461Z,12.90
2018-02-05T07:19:54.372Z,13.40
2018-02-05T07:20:54.332Z,13.30
2018-02-05T07:21:54.209Z,13.60
2018-02-05T07:22:54.151Z,13.40
2018-02-05T07:23:54.030Z,12.80
2018-02-05T07:24:53.959Z,13.40
2018-02-05T07:25:53.860Z,14.00
2018-02-05T07:26:53.783Z,13.90
2018-02-05T07:27:53.694Z,12.80
2018-02-05T07:28:53.647Z,13.50
2018-02-05T07:29:53.523Z,13.00
2018-02-05T07:30:53.451Z,13.30
2018-02-05T07:31:53.364Z,13.10
2018-02-05T07:32:53.278Z,13.80
2018-02-05T07:33:53.206Z,13.40
2018-02-05T07:34:53.117Z,13.40
2018-02-05T07:35:53.021Z,12.50
2018-02-05T07:36:52.955Z,12.90
2018-02-05T07:37:52.896Z,12.70
2018-02-05T07:38:52.795Z,12.40
2018-02-05T07:39:52.692Z,13.20
2018-02-05T07:40:52.605Z,13.60
2018-02-05T07:41:52.514Z,13.00
2018-02-05T07:42:52.442Z,12.80
2018-02-05T07:43:52.365Z,12.70
2018-02-05T07:44:52.312Z,12.60
2018-02-05T07:45:52.191Z,12.60
2018-02-05T07:46:52.098Z,13.00
2018-02-05T07:47:52.101Z,13.10
2018-02-05T07:48:51.944Z,12.50
2018-02-05T07:49:51.884Z,13.70
2018-02-05T07:50:51.788Z,12.80
2018-02-05T07:51:51.675Z,13.10
2018-02-05T07:52:51.604Z,13.50
2018-02-05T07:53:51.529Z,13.60
2018-02-05T07:54:51.440Z,13.90
2018-02-05T07:55:51.338Z,13.40
2018-02-05T07:56:51.270Z,12.50
2018-02-05T07:57:51.184Z,13.30
2018-02-05T07:58:51.098Z,13.50
2018-02-05T07:59:51.003Z,13.20
2018-02-05T08:00:50.957Z,13.50
2018-02-05T08:01:50.830Z,13.30
2018-02-05T08:02:50.766Z,13.70
2018-02-05T08:03:50.675Z,13.20
2018-02-05T08:04:50.590Z,12.90
2018-02-05T08:05:50.523Z,12.90
2018-02-05T08:06:50.438Z,12.80
2018-02-05T08:07:50.441Z,12.40
2018-02-05T08:08:50.294Z,13.20
2018-02-05T08:09:50.174Z,12.70
2018-02-05T08:10:50.167Z,12.50
2018-02-05T08:11:50.008Z,12.70
2018-02-05T08:12:49.934Z,12.90
2018-02-05T08:13:49.854Z,12.90
2018-02-05T08:14:49.796Z,12.90
2018-02-05T08:15:49.672Z,12.60
2018-02-05T08:16:49.633Z,13.10
2018-02-05T08:17:49.495Z,12.80
2018-02-05T08:18:49.427Z,12.00
2018-02-05T08:19:49.334Z,12.80
2018-02-05T08:20:49.259Z,12.60
2018-02-05T08:21:49.184Z,12.70
2018-02-05T08:22:49.133Z,12.40
2018-02-05T08:23:49.001Z,12.80
2018-02-05T08:24:48.925Z,12.40
2018-02-05T08:25:48.852Z,13.00
2018-02-05T08:26:48.761Z,12.10
2018-02-05T08:27:48.679Z,12.10
2018-02-05T08:28:48.609Z,12.00
2018-02-05T08:29:48.491Z,13.30
2018-02-05T08:30:48.469Z,11.80
2018-02-05T08:31:48.329Z,11.70
2018-02-05T08:32:48.288Z,12.10
2018-02-05T08:33:48.157Z,12.30
2018-02-05T08:34:48.090Z,11.90
2018-02-05T08:35:47.989Z,12.60
2018-02-05T08:36:47.922Z,12.10
2018-02-05T08:37:47.999Z,12.10
2018-02-05T08:38:47.794Z,12.00
2018-02-05T08:39:47.689Z,11.60
2018-02-05T08:40:47.587Z,11.50
2018-02-05T08:41:47.489Z,11.30
2018-02-05T08:42:47.419Z,10.90
2018-02-05T08:43:47.327Z,11.70
2018-02-05T08:44:47.281Z,10.80
2018-02-05T08:45:47.165Z,11.10
2018-02-05T08:46:47.096Z,11.10
2018-02-05T08:47:47.019Z,10.70
2018-02-05T08:48:46.914Z,11.20
2018-02-05T08:49:46.850Z,11.90
2018-02-05T08:50:46.782Z,11.10
2018-02-05T08:51:46.733Z,11.30
2018-02-05T08:52:46.619Z,11.00
2018-02-05T08:53:46.504Z,11.40
2018-02-05T08:54:46.420Z,12.40
2018-02-05T08:55:46.391Z,11.70
2018-02-05T08:56:46.260Z,11.20
2018-02-05T08:57:46.156Z,11.90
2018-02-05T08:58:46.091Z,11.30
2018-02-05T08:59:46.018Z,11.60
2018-02-05T09:00:46.017Z,12.10
2018-02-05T09:01:45.823Z,11.30
2018-02-05T09:02:45.757Z,12.40
2018-02-05T09:03:45.665Z,12.00
2018-02-05T09:04:45.596Z,11.00
2018-02-05T09:05:45.524Z,11.40
2018-02-05T09:06:45.481Z,10.90
2018-02-05T09:07:45.337Z,11.50
2018-02-05T09:08:45.272Z,11.60
2018-02-05T09:09:45.167Z,10.70
2018-02-05T09:10:45.103Z,12.00
2018-02-05T09:11:45.034Z,11.30
2018-02-05T09:12:44.940Z,13.80
2018-02-05T09:13:44.845Z,10.60
2018-02-05T09:14:44.781Z,10.50
2018-02-05T09:15:44.699Z,15.70
2018-02-05T09:16:44.634Z,13.20
2018-02-05T09:17:44.527Z,10.60
2018-02-05T09:18:44.457Z,10.20
2018-02-05T09:19:44.426Z,10.80
2018-02-05T09:20:44.304Z,10.00
2018-02-05T09:21:44.512Z,11.30
2018-02-05T09:22:44.139Z,12.10
2018-02-05T09:23:44.088Z,10.70
2018-02-05T09:24:43.992Z,10.70
2018-02-05T09:25:43.900Z,10.40
2018-02-05T09:26:43.845Z,11.10
2018-02-05T09:27:43.751Z,10.10
2018-02-05T09:28:43.709Z,10.50
2018-02-05T09:29:43.593Z,11.00
2018-02-05T09:30:43.513Z,10.30
2018-02-05T09:31:43.406Z,10.20
2018-02-05T09:32:43.399Z,10.50
2018-02-05T09:33:43.255Z,10.20
2018-02-05T09:34:43.184Z,10.00
2018-02-05T09:35:43.114Z,9.70
2018-02-05T09:36:43.018Z,10.40
2018-02-05T09:37:42.959Z,10.50
2018-02-05T09:38:42.863Z,11.00
2018-02-05T09:39:42.800Z,10.30
2018-02-05T09:40:42.713Z,10.30
2018-02-05T09:41:42.622Z,10.30
2018-02-05T09:42:42.600Z,10.10
2018-02-05T09:43:42.480Z,10.40
2018-02-05T09:44:42.402Z,9.70
2018-02-05T09:45:42.314Z,9.60
2018-02-05T09:46:42.263Z,9.40
2018-02-05T09:47:42.147Z,9.90
2018-02-05T09:48:42.218Z,9.70
2018-02-05T09:49:42.004Z,9.60
2018-02-05T09:50:41.980Z,10.30
2018-02-05T09:51:41.829Z,10.30
2018-02-05T09:52:41.766Z,9.20
2018-02-05T09:53:41.702Z,10.50
2018-02-05T09:54:41.644Z,11.70
2018-02-05T09:55:41.520Z,9.70
2018-02-05T09:56:41.449Z,9.50
2018-02-05T09:57:41.374Z,10.10
2018-02-05T09:58:41.307Z,9.30
2018-02-05T09:59:41.255Z,10.80
2018-02-05T10:00:41.144Z,11.30
2018-02-05T10:01:41.056Z,10.00
2018-02-05T10:02:41.029Z,11.10
2018-02-05T10:03:40.906Z,10.40
2018-02-05T10:04:40.826Z,9.60
2018-02-05T10:05:40.775Z,9.80
2018-02-05T10:06:40.692Z,10.50
2018-02-05T10:07:40.597Z,9.90
2018-02-05T10:08:40.525Z,10.00
2018-02-05T10:09:40.444Z,10.40
2018-02-05T10:10:40.383Z,10.20
2018-02-05T10:11:40.284Z,10.10
2018-02-05T10:12:40.213Z,10.70
2018-02-05T10:13:40.133Z,9.90
2018-02-05T10:14:40.060Z,12.00
2018-02-05T10:15:39.994Z,10.70
2018-02-05T10:16:39.920Z,9.80
2018-02-05T10:17:39.824Z,10.60
2018-02-05T10:18:39.758Z,10.10
2018-02-05T10:19:39.662Z,11.10
2018-02-05T10:20:39.737Z,11.00
2018-02-05T10:21:39.501Z,10.60
2018-02-05T10:22:39.485Z,11.00
2018-02-05T10:23:39.365Z,10.60
2018-02-05T10:24:39.290Z,10.80
2018-02-05T10:25:39.197Z,10.40
2018-02-05T10:26:39.128Z,10.40
2018-02-05T10:27:39.072Z,10.20
2018-02-05T10:28:38.998Z,10.50
2018-02-05T10:29:39.062Z,12.70
2018-02-05T10:30:38.818Z,10.80
2018-02-05T10:31:38.758Z,9.80
2018-02-05T10:32:38.686Z,11.20
2018-02-05T10:33:38.585Z,11.00
2018-02-05T10:34:38.519Z,11.50
2018-02-05T10:35:38.427Z,10.90
2018-02-05T10:36:38.399Z,10.40
2018-02-05T10:37:38.285Z,10.50
2018-02-05T10:38:38.231Z,10.50
2018-02-05T10:39:38.186Z,9.90
2018-02-05T10:40:38.049Z,12.20
2018-02-05T10:41:37.988Z,9.10
2018-02-05T10:42:37.914Z,9.70
2018-02-05T10:43:37.831Z,9.40
2018-02-05T10:44:37.744Z,9.00
2018-02-05T10:45:37.666Z,10.40
2018-02-05T10:46:37.599Z,9.40
2018-02-05T10:47:37.492Z,10.10
2018-02-05T10:48:37.447Z,8.80
2018-02-05T10:49:37.345Z,9.20
2018-02-05T10:50:37.275Z,9.00
2018-02-05T10:51:37.198Z,9.20
2018-02-05T10:52:37.140Z,9.30
2018-02-05T10:53:37.077Z,9.20
2018-02-05T10:54:37.002Z,9.00
2018-02-05T10:55:36.877Z,8.70
2018-02-05T10:56:36.813Z,8.90
2018-02-05T10:57:36.723Z,9.30
2018-02-05T10:58:36.685Z,8.50
2018-02-05T10:59:36.571Z,9.60
2018-02-05T11:00:36.508Z,8.90
2018-02-05T11:01:36.420Z,8.50
2018-02-05T11:02:36.363Z,8.10
2018-02-05T11:03:36.285Z,8.40
2018-02-05T11:04:36.208Z,8.10
2018-02-05T11:05:36.117Z,8.00
2018-02-05T11:06:36.043Z,7.70
2018-02-05T11:07:35.967Z,8.70
2018-02-05T11:08:35.933Z,9.00
2018-02-05T11:09:35.817Z,7.50
2018-02-05T11:10:35.783Z,7.70
2018-02-05T11:11:35.649Z,8.30
2018-02-05T11:12:35.596Z,7.50
2018-02-05T11:13:35.494Z,8.00
2018-02-05T11:14:35.450Z,10.00
2018-02-05T11:15:35.344Z,8.80
2018-02-05T11:16:35.272Z,7.90
2018-02-05T11:17:35.186Z,7.40
2018-02-05T11:18:35.124Z,7.10
2018-02-05T11:19:35.138Z,7.70
2018-02-05T11:20:34.975Z,8.30
2018-02-05T11:21:34.879Z,7.20
2018-02-05T11:22:34.816Z,7.60
2018-02-05T11:23:34.726Z,6.50
2018-02-05T11:24:34.711Z,7.60
2018-02-05T11:25:34.593Z,7.10
2018-02-05T11:26:34.544Z,7.10
2018-02-05T11:27:34.430Z,6.90
2018-02-05T11:28:34.384Z,6.90
2018-02-05T11:29:34.260Z,6.70
2018-02-05T11:30:34.228Z,7.40
2018-02-05T11:31:34.109Z,6.70
2018-02-05T11:32:34.054Z,6.70
2018-02-05T11:33:33.955Z,6.40
2018-02-05T11:34:33.887Z,6.60
2018-02-05T11:35:33.834Z,6.50
2018-02-05T11:36:33.741Z,6.20
2018-02-05T11:37:33.658Z,6.90
2018-02-05T11:38:33.586Z,6.50
2018-02-05T11:39:33.489Z,7.00
2018-02-05T11:40:33.464Z,6.30
2018-02-05T11:41:33.338Z,6.60
2018-02-05T11:42:33.296Z,6.50
2018-02-05T11:43:33.180Z,6.40
2018-02-05T11:44:33.141Z,6.40
2018-02-05T11:45:33.041Z,6.50
2018-02-05T11:46:32.986Z,6.60
2018-02-05T11:47:32.884Z,6.70
2018-02-05T11:48:32.805Z,6.20
2018-02-05T11:49:32.722Z,6.50
2018-02-05T11:50:32.683Z,6.40
2018-02-05T11:51:32.566Z,6.60
2018-02-05T11:52:32.515Z,6.80
2018-02-05T11:53:32.431Z,7.10
2018-02-05T11:54:32.347Z,6.80
2018-02-05T11:55:32.277Z,19.60
2018-02-05T11:56:32.208Z,7.20
2018-02-05T11:57:32.133Z,8.00
2018-02-05T11:58:32.056Z,7.40
2018-02-05T11:59:31.946Z,6.30
2018-02-05T12:00:31.876Z,6.90
2018-02-05T12:01:31.792Z,6.70
2018-02-05T12:02:32.344Z,6.20
2018-02-05T12:03:31.647Z,6.50
2018-02-05T12:04:31.589Z,6.40
2018-02-05T12:05:31.489Z,7.10
2018-02-05T12:06:31.429Z,6.80
2018-02-05T12:07:31.374Z,6.40
2018-02-05T12:08:31.275Z,6.40
2018-02-05T12:09:31.206Z,6.00
2018-02-05T12:10:31.114Z,6.00
2018-02-05T12:11:31.030Z,6.00
2018-02-05T12:12:30.947Z,6.50
2018-02-05T12:13:30.886Z,6.40
2018-02-05T12:14:30.810Z,6.10
2018-02-05T12:15:30.726Z,6.70
2018-02-05T12:16:30.651Z,6.10
2018-02-05T12:17:30.573Z,6.40
2018-02-05T12:18:30.525Z,5.90
2018-02-05T12:19:30.415Z,6.40
2018-02-05T12:20:30.343Z,6.50
2018-02-05T12:21:30.242Z,6.80
2018-02-05T12:22:30.215Z,6.90
2018-02-05T12:23:30.106Z,6.60
2018-02-05T12:24:30.058Z,6.10
2018-02-05T12:25:29.944Z,5.50
2018-02-05T12:26:29.871Z,6.10
2018-02-05T12:27:29.839Z,6.00
2018-02-05T12:28:29.772Z,6.20
2018-02-05T12:29:29.647Z,6.50
2018-02-05T12:30:29.590Z,6.00
2018-02-05T12:31:29.476Z,6.30
2018-02-05T12:32:29.405Z,6.30
2018-02-05T12:33:29.321Z,5.90
2018-02-05T12:34:29.299Z,6.00
2018-02-05T12:35:29.161Z,6.40
2018-02-05T12:36:29.098Z,6.30
2018-02-05T12:37:29.010Z,5.90
2018-02-05T12:38:28.961Z,6.00
2018-02-05T12:39:28.880Z,6.20
2018-02-05T12:40:28.786Z,6.70
2018-02-05T12:41:28.699Z,6.30
2018-02-05T12:42:28.643Z,6.30
2018-02-05T12:43:28.625Z,6.10
2018-02-05T12:44:28.461Z,6.40
2018-02-05T12:45:28.447Z,6.40
2018-02-05T12:46:28.318Z,6.00
2018-02-05T12:47:28.242Z,6.50
2018-02-05T12:48:28.157Z,6.40
2018-02-05T12:49:28.093Z,6.30
2018-02-05T12:50:27.999Z,5.70
2018-02-05T12:51:27.924Z,5.90
2018-02-05T12:52:27.826Z,6.30
2018-02-05T12:53:27.748Z,6.20
2018-02-05T12:54:27.665Z,5.90
2018-02-05T12:55:27.575Z,6.10
2018-02-05T12:56:27.593Z,6.10
2018-02-05T12:57:27.451Z,6.00
2018-02-05T12:58:27.347Z,5.70
2018-02-05T12:59:27.264Z,6.00